Kaneohe, HI

5:36 AM HST on October 30, 2014 (GMT -1000)
Kaneohe Bay Marine Corps Air Facility | Change Station
CLOSE
Current Station
Airport
Location: Kaneohe MCBH,
Elevation: 23 ft
Nearby Weather Stations
Active Advisory: High Surf Advisory

Elev 23 ft 21.45 °N, 157.76 °W | Updated 39 minutes ago

Partly Cloudy
Partly Cloudy
77 °F
Feels Like 77 °F
N
10
Wind Variable Wind from NE

Today
High -- | Low -- °F
--% Chance of Precip.
Yesterday
High -- | Low -- °F
Precip. -- in
6:33 AM 5:55 PM
Waxing Crescent, 45% visible
Pressure 30.04 in
Visibility 10.0 miles
Clouds Few 1900 ft
Dew Point 71 °F
Humidity 82%
Rainfall 0.03 in
Snow Depth Not available.
UV 0 out of 12
Pollen Not available.
Air Quality Not available.
Flu Activity Not available.
METAR PHNG 301457Z 05009KT 10SM FEW019 25/22 A3005 RMK AO2 SLP172 60000 T02500217 55008 $

More Conditions Fewer Conditions

Pressure 30.04 in
Visibility 10.0 miles
Clouds Few 1900 ft
Dew Point 71 °F
Humidity 82%
Rainfall 0.03 in
Snow Depth Not available.
UV 0 out of 12
Pollen Not available.
Air Quality Not available.
Flu Activity Not available.
METAR PHNG 301457Z 05009KT 10SM FEW019 25/22 A3005 RMK AO2 SLP172 60000 T02500217 55008 $

More Conditions Fewer Conditions

10-Day Weather Forecast

Almanac

Astronomy

Oct. 30, 2014 Rise Set
Actual Time
Civil Twilight
Nautical Twilight
Astronomical Twilight
Moon
Length of Visible Light
Length of Day
Tomorrow will be .
, % of the Moon is Illuminated

Today's Extremes

State Highs State Lows

Community

WunderPhotos

Upload Photos

1,766,387 photos uploaded!

WunderBlogs® & News

Nearby

Air Quality

  Air Quality AQ Index Pollutant
Not available.

Snow Depth

Station Depth Elevation

Earthquake Activity

City Distance Mag. Time & Date
Minimum magnitude displayed is 2.5.

Coastal Water Temperatures

Place Temperature

Nearby Weather Stations